Time;durP1;ratioP1;P1;durP2;ratioP2;P2;SDS_P1;SDS_P2;PMS_P1;PMS_P2;Temp;Humidity;BMP_temperature;BMP_pressure;BME280_temperature;BME280_humidity;BME280_pressure;Samples;Min_cycle;Max_cycle;Signal;HPM_P1;HPM_P2
2021/07/27 00:02:00;;;;;;;9.87;9.47;;;24.80;95.20;;;;;;3586030;40;20473;-59
2021/07/27 00:04:28;;;;;;;9.70;9.30;;;24.80;95.20;;;;;;3584653;40;20466;-58
2021/07/27 00:06:56;;;;;;;9.50;9.10;;;24.80;95.20;;;;;;3584496;40;20459;-58
2021/07/27 00:09:26;;;;;;;9.50;9.10;;;24.80;95.20;;;;;;3575720;40;20643;-58
2021/07/27 00:11:53;;;;;;;10.13;9.73;;;24.80;95.20;;;;;;3584691;40;20461;-59
2021/07/27 00:14:20;;;;;;;9.33;8.97;;;24.80;95.20;;;;;;3584861;40;20472;-58
2021/07/27 00:16:47;;;;;;;9.70;9.30;;;24.80;95.20;;;;;;3585522;40;20544;-58
2021/07/27 00:19:17;;;;;;;9.90;9.50;;;24.80;95.20;;;;;;3585944;40;20474;-59
2021/07/27 00:21:46;;;;;;;9.37;8.97;;;24.70;95.20;;;;;;3586332;40;20473;-59
2021/07/27 00:24:13;;;;;;;9.23;8.93;;;24.80;95.20;;;;;;3584857;40;20470;-59
2021/07/27 00:26:40;;;;;;;8.70;8.40;;;24.80;95.20;;;;;;3585375;40;20846;-58
2021/07/27 00:29:08;;;;;;;9.67;9.27;;;24.80;95.20;;;;;;3585608;40;20675;-58
2021/07/27 00:31:35;;;;;;;9.53;9.13;;;24.80;95.20;;;;;;3586009;40;20518;-58
2021/07/27 00:34:02;;;;;;;9.40;9.00;;;24.80;95.20;;;;;;3585557;40;20466;-58
2021/07/27 00:36:29;;;;;;;9.70;9.30;;;24.80;95.20;;;;;;3584774;40;20446;-59
2021/07/27 00:38:58;;;;;;;9.07;8.77;;;24.80;95.20;;;;;;3585697;40;20462;-57
2021/07/27 00:41:25;;;;;;;9.60;9.20;;;24.80;95.20;;;;;;3584493;40;20450;-57
2021/07/27 00:43:52;;;;;;;8.70;8.40;;;24.80;95.20;;;;;;3586410;40;20552;-58
2021/07/27 00:46:20;;;;;;;8.93;8.63;;;24.80;95.20;;;;;;3585915;40;20465;-57
2021/07/27 00:48:48;;;;;;;9.37;9.00;;;24.80;95.20;;;;;;3585134;40;20454;-58
2021/07/27 00:51:15;;;;;;;9.30;8.90;;;24.70;95.10;;;;;;3585447;40;20463;-58
2021/07/27 00:53:42;;;;;;;9.00;8.70;;;24.80;95.20;;;;;;3586259;40;20707;-57
2021/07/27 00:56:11;;;;;;;9.37;9.03;;;24.80;95.20;;;;;;3585949;40;20812;-59
2021/07/27 00:58:39;;;;;;;8.97;8.67;;;24.80;95.20;;;;;;3586072;40;20450;-59
2021/07/27 01:01:06;;;;;;;9.53;9.13;;;24.80;95.20;;;;;;3576645;40;20478;-58
2021/07/27 01:03:33;;;;;;;8.80;8.50;;;24.80;95.20;;;;;;3585579;40;20560;-58
2021/07/27 01:06:01;;;;;;;9.00;8.70;;;24.80;95.20;;;;;;3586253;40;20458;-58
2021/07/27 01:08:28;;;;;;;9.07;8.77;;;24.70;95.20;;;;;;3584678;40;20474;-58
2021/07/27 01:10:56;;;;;;;9.53;9.13;;;24.80;95.20;;;;;;3585671;40;20843;-58
2021/07/27 01:13:25;;;;;;;9.17;8.87;;;24.70;95.10;;;;;;3586177;40;20450;-57
2021/07/27 01:15:53;;;;;;;8.93;8.63;;;24.70;95.10;;;;;;3585840;40;20462;-59
2021/07/27 01:18:25;;;;;;;8.77;8.47;;;24.70;95.10;;;;;;3586058;40;20470;-59
2021/07/27 01:37:36;;;;;;;8.90;8.60;;;24.70;95.10;;;;;;3586240;40;20544;-58
2021/07/27 01:40:05;;;;;;;8.90;8.60;;;24.70;95.10;;;;;;3586120;40;20474;-60
2021/07/27 01:42:38;;;;;;;8.73;8.40;;;24.70;95.10;;;;;;3585324;40;20466;-58
2021/07/27 01:45:21;;;;;;;8.47;8.17;;;24.70;95.10;;;;;;3585097;40;20626;-59
2021/07/27 01:47:48;;;;;;;9.27;8.87;;;24.70;95.20;;;;;;3585892;40;20654;-59
2021/07/27 01:50:17;;;;;;;8.10;7.80;;;24.70;95.10;;;;;;3585626;40;21020;-59
2021/07/27 01:52:48;;;;;;;8.97;8.57;;;24.70;95.20;;;;;;3584858;40;20458;-59
2021/07/27 01:55:19;;;;;;;9.10;8.73;;;24.70;95.10;;;;;;3585749;40;20470;-58
2021/07/27 01:57:47;;;;;;;9.10;8.70;;;24.70;95.20;;;;;;3584394;40;20548;-59
2021/07/27 02:00:15;;;;;;;9.60;9.20;;;24.70;95.10;;;;;;3575946;40;20883;-58
2021/07/27 02:02:42;;;;;;;9.60;9.20;;;24.70;95.10;;;;;;3584867;40;20461;-58
2021/07/27 02:05:12;;;;;;;9.30;9.00;;;24.70;95.10;;;;;;3584999;40;20494;-58
2021/07/27 02:07:40;;;;;;;9.73;9.33;;;24.70;95.10;;;;;;3585083;40;20544;-59
2021/07/27 02:10:12;;;;;;;9.73;9.33;;;24.70;95.10;;;;;;3585731;40;20481;-58
2021/07/27 02:12:50;;;;;;;9.90;9.50;;;24.70;95.10;;;;;;3585785;40;20494;-58
2021/07/27 02:15:23;;;;;;;9.73;9.33;;;24.70;95.10;;;;;;3584360;40;20765;-59
2021/07/27 02:17:50;;;;;;;9.90;9.40;;;24.70;95.10;;;;;;3584863;40;20474;-57
2021/07/27 02:20:18;;;;;;;9.40;9.10;;;24.70;95.10;;;;;;3584873;40;20466;-57
2021/07/27 02:22:45;;;;;;;9.60;9.20;;;24.70;95.10;;;;;;3585499;40;20820;-57
2021/07/27 02:25:13;;;;;;;9.97;9.57;;;24.70;95.10;;;;;;3584400;40;20471;-58
2021/07/27 02:27:43;;;;;;;9.70;9.40;;;24.70;95.10;;;;;;3585378;40;20616;-57
2021/07/27 02:30:10;;;;;;;9.83;9.50;;;24.70;95.10;;;;;;3585488;40;20457;-59
2021/07/27 02:32:38;;;;;;;9.30;8.97;;;24.70;95.10;;;;;;3584976;40;20458;-59
2021/07/27 02:35:07;;;;;;;9.20;8.80;;;24.70;95.10;;;;;;3584947;40;20454;-58
2021/07/27 02:37:34;;;;;;;9.70;9.30;;;24.70;95.10;;;;;;3584568;40;20773;-58
2021/07/27 02:40:04;;;;;;;9.47;9.17;;;24.70;95.10;;;;;;3576103;40;20741;-61
2021/07/27 02:42:32;;;;;;;9.40;9.10;;;24.70;95.10;;;;;;3584379;40;20502;-58
2021/07/27 02:45:02;;;;;;;9.30;8.90;;;24.70;95.10;;;;;;3585164;40;20500;-58
2021/07/27 02:47:29;;;;;;;9.47;9.17;;;24.70;95.10;;;;;;3584647;40;20810;-59
2021/07/27 02:49:56;;;;;;;9.90;9.50;;;24.70;95.10;;;;;;3575691;40;20490;-59
2021/07/27 02:52:23;;;;;;;10.07;9.67;;;24.70;95.10;;;;;;3585689;40;20466;-59
2021/07/27 02:54:51;;;;;;;9.50;9.20;;;24.70;95.10;;;;;;3585581;40;20825;-58
2021/07/27 02:57:18;;;;;;;9.50;9.17;;;24.70;95.10;;;;;;3583878;40;20557;-58
2021/07/27 02:59:45;;;;;;;9.43;9.03;;;24.70;95.10;;;;;;3583946;40;20546;-57
2021/07/27 03:02:14;;;;;;;9.20;8.80;;;24.70;95.10;;;;;;3584436;40;20453;-60
2021/07/27 03:04:41;;;;;;;9.73;9.33;;;24.70;95.10;;;;;;3584844;40;20474;-58
2021/07/27 03:07:09;;;;;;;9.77;9.37;;;24.70;95.10;;;;;;3584744;40;20467;-58
2021/07/27 03:10:16;;;;;;;9.00;8.70;;;24.70;95.10;;;;;;3584056;40;20486;-58
2021/07/27 03:12:25;;;;;;;10.50;10.00;;;24.70;95.10;;;;;;3584044;40;20478;-58
2021/07/27 03:14:52;;;;;;;9.90;9.50;;;24.70;95.10;;;;;;3583909;40;20466;-55
2021/07/27 03:17:21;;;;;;;9.83;9.50;;;24.70;95.10;;;;;;3584658;40;20457;-59
2021/07/27 03:19:48;;;;;;;9.80;9.40;;;24.70;95.10;;;;;;3583108;40;20461;-59
2021/07/27 03:22:15;;;;;;;9.83;9.53;;;24.70;95.10;;;;;;3584216;40;20504;-57
2021/07/27 03:24:43;;;;;;;9.80;9.40;;;24.70;95.10;;;;;;3584759;40;20852;-59
2021/07/27 03:27:10;;;;;;;9.70;9.30;;;24.70;95.10;;;;;;3585960;40;20512;-58
2021/07/27 03:29:37;;;;;;;9.53;9.23;;;24.70;95.10;;;;;;3586844;40;20438;-57
2021/07/27 03:32:04;;;;;;;9.20;8.90;;;24.70;95.10;;;;;;3586384;40;20454;-57
2021/07/27 03:34:33;;;;;;;9.60;9.20;;;24.70;95.10;;;;;;3585509;40;20469;-58
2021/07/27 03:37:00;;;;;;;10.70;10.30;;;24.70;95.10;;;;;;3585134;40;20457;-59
2021/07/27 03:39:27;;;;;;;10.53;10.13;;;24.70;95.10;;;;;;3584982;40;20470;-58
2021/07/27 03:41:54;;;;;;;10.53;10.13;;;24.70;95.10;;;;;;3585427;40;20438;-58
2021/07/27 03:44:22;;;;;;;10.60;10.20;;;24.70;95.10;;;;;;3585413;40;20485;-59
2021/07/27 03:46:53;;;;;;;11.20;10.80;;;24.70;95.10;;;;;;3584639;40;20450;-59
2021/07/27 03:49:20;;;;;;;10.37;9.97;;;24.70;95.10;;;;;;3575137;40;20970;-57
2021/07/27 03:51:49;;;;;;;10.47;10.10;;;24.70;95.10;;;;;;3583786;40;20458;-59
2021/07/27 03:54:16;;;;;;;10.33;9.93;;;24.70;95.10;;;;;;3583871;40;20604;-59
2021/07/27 03:56:43;;;;;;;10.73;10.33;;;24.70;95.10;;;;;;3575440;40;20442;-58
2021/07/27 03:59:14;;;;;;;10.03;9.67;;;24.70;95.10;;;;;;3583819;40;20682;-59
2021/07/27 04:01:42;;;;;;;11.30;10.80;;;24.70;95.10;;;;;;3584123;40;20843;-56
2021/07/27 04:04:09;;;;;;;10.33;9.93;;;24.70;95.10;;;;;;3584927;40;20813;-57
2021/07/27 04:06:36;;;;;;;11.03;10.63;;;24.70;95.10;;;;;;3582910;40;20947;-58
2021/07/27 04:09:05;;;;;;;11.00;10.60;;;24.70;95.10;;;;;;3583754;40;20462;-60
2021/07/27 04:11:32;;;;;;;10.80;10.40;;;24.70;95.10;;;;;;3583559;40;20541;-58
2021/07/27 04:13:59;;;;;;;11.27;10.87;;;24.70;95.10;;;;;;3584038;40;20638;-60
2021/07/27 04:16:26;;;;;;;11.00;10.60;;;24.70;95.10;;;;;;3565588;40;20912;-58
2021/07/27 04:18:54;;;;;;;11.00;10.60;;;24.70;95.10;;;;;;3583030;40;20444;-59
2021/07/27 04:21:21;;;;;;;10.70;10.30;;;24.70;95.10;;;;;;3583055;40;20651;-59
2021/07/27 04:23:48;;;;;;;11.37;10.97;;;24.70;95.10;;;;;;3583017;40;20490;-59
2021/07/27 04:26:17;;;;;;;11.10;10.70;;;24.70;95.10;;;;;;3582894;40;20627;-58
2021/07/27 04:28:44;;;;;;;10.93;10.53;;;24.70;95.10;;;;;;3581788;40;20655;-59
2021/07/27 04:31:11;;;;;;;10.70;10.30;;;24.70;95.10;;;;;;3581312;40;20754;-58
2021/07/27 04:33:39;;;;;;;10.50;10.10;;;24.70;95.10;;;;;;3579399;40;20470;-58
2021/07/27 04:36:06;;;;;;;10.50;10.20;;;24.70;95.10;;;;;;3581265;40;20453;-59
2021/07/27 04:38:33;;;;;;;10.43;10.03;;;24.70;95.10;;;;;;3581371;40;20737;-59
2021/07/27 04:41:06;;;;;;;10.30;10.00;;;24.70;95.10;;;;;;3580231;40;20466;-59
2021/07/27 04:43:36;;;;;;;10.50;10.17;;;24.70;95.10;;;;;;3581186;40;20469;-60
2021/07/27 04:46:04;;;;;;;10.80;10.40;;;24.70;95.10;;;;;;3579989;40;20722;-58
2021/07/27 04:48:31;;;;;;;10.00;9.70;;;24.70;95.10;;;;;;3581570;40;20451;-59
2021/07/27 04:50:59;;;;;;;11.30;10.90;;;24.70;95.10;;;;;;3579931;40;20590;-58
2021/07/27 04:53:29;;;;;;;10.30;10.00;;;24.70;95.10;;;;;;3581158;40;20466;-58
2021/07/27 04:56:00;;;;;;;10.47;10.07;;;24.70;95.10;;;;;;3581012;40;20454;-59
2021/07/27 04:58:28;;;;;;;10.80;10.40;;;24.70;95.10;;;;;;3579905;40;20700;-58
2021/07/27 05:01:02;;;;;;;10.60;10.20;;;24.70;95.10;;;;;;3578275;40;20772;-59
2021/07/27 05:03:30;;;;;;;10.80;10.40;;;24.70;95.10;;;;;;3577792;40;20513;-59
2021/07/27 05:05:57;;;;;;;10.97;10.57;;;24.70;95.10;;;;;;3576874;40;20502;-60
2021/07/27 05:08:24;;;;;;;10.93;10.53;;;24.70;95.10;;;;;;3577409;40;20481;-58
2021/07/27 05:10:51;;;;;;;10.90;10.50;;;24.70;95.10;;;;;;3577945;40;20454;-58
2021/07/27 05:13:19;;;;;;;11.00;10.60;;;24.70;95.40;;;;;;3578627;40;20903;-58
2021/07/27 05:15:46;;;;;;;11.10;10.70;;;24.70;95.10;;;;;;3577213;40;20517;-59
2021/07/27 05:18:16;;;;;;;10.40;10.07;;;24.70;95.10;;;;;;3568222;40;20619;-59
2021/07/27 05:20:44;;;;;;;10.70;10.30;;;24.70;95.10;;;;;;3576619;40;20466;-58
2021/07/27 05:23:12;;;;;;;10.83;10.43;;;24.70;95.10;;;;;;3576237;40;20514;-60
2021/07/27 05:25:39;;;;;;;11.10;10.70;;;24.70;95.10;;;;;;3576246;40;20509;-57
2021/07/27 05:28:07;;;;;;;11.43;11.03;;;24.70;95.10;;;;;;3576899;40;20474;-58
2021/07/27 05:30:35;;;;;;;11.87;11.40;;;24.70;95.00;;;;;;3576235;40;20861;-58
2021/07/27 05:33:02;;;;;;;11.10;10.70;;;24.70;95.00;;;;;;3575087;40;20722;-59
2021/07/27 05:35:31;;;;;;;10.80;10.40;;;24.70;95.10;;;;;;3574376;40;20461;-59
2021/07/27 05:37:58;;;;;;;10.33;10.03;;;24.70;95.10;;;;;;3575806;40;20469;-58
2021/07/27 05:40:30;;;;;;;10.00;9.70;;;24.70;95.10;;;;;;3575498;40;20455;-59
2021/07/27 05:42:57;;;;;;;10.60;10.20;;;24.70;95.10;;;;;;3576899;40;20575;-59
2021/07/27 05:45:25;;;;;;;10.40;10.00;;;24.70;95.10;;;;;;3573697;40;20520;-59
2021/07/27 05:47:53;;;;;;;10.73;10.33;;;24.70;95.00;;;;;;3570098;40;20727;-59
2021/07/27 05:50:21;;;;;;;11.10;10.70;;;24.70;95.00;;;;;;3571447;40;20527;-56
2021/07/27 05:52:57;;;;;;;10.37;10.07;;;24.70;95.00;;;;;;3570210;40;20458;-58
2021/07/27 05:55:24;;;;;;;11.13;10.73;;;24.70;95.00;;;;;;3572882;40;20466;-59
2021/07/27 05:57:51;;;;;;;10.80;10.40;;;24.70;95.00;;;;;;3571113;40;20490;-59
2021/07/27 06:00:19;;;;;;;11.00;10.50;;;24.70;95.00;;;;;;3570925;40;20742;-55
2021/07/27 06:02:46;;;;;;;10.60;10.20;;;24.70;95.00;;;;;;3567945;40;20578;-60
2021/07/27 06:05:14;;;;;;;10.50;10.10;;;24.70;95.00;;;;;;3569046;40;20478;-60
2021/07/27 06:07:41;;;;;;;10.00;9.70;;;24.70;95.00;;;;;;3567789;40;20641;-59
2021/07/27 06:10:11;;;;;;;10.10;9.80;;;24.70;95.00;;;;;;3565491;40;20462;-58
2021/07/27 06:12:38;;;;;;;10.63;10.23;;;24.70;95.00;;;;;;3565352;40;21119;-59
2021/07/27 06:15:07;;;;;;;11.10;10.70;;;24.70;95.00;;;;;;3564836;40;20572;-58
2021/07/27 06:17:34;;;;;;;11.10;10.70;;;24.70;95.00;;;;;;3565435;40;20450;-58
2021/07/27 06:20:01;;;;;;;10.60;10.20;;;24.70;95.00;;;;;;3567377;40;20462;-59
2021/07/27 06:22:28;;;;;;;10.47;10.07;;;24.70;95.00;;;;;;3567789;40;20470;-59
2021/07/27 06:24:57;;;;;;;10.93;10.43;;;24.70;95.00;;;;;;3550665;40;20763;-57
2021/07/27 06:27:26;;;;;;;10.73;10.33;;;24.70;95.00;;;;;;3557974;40;20564;-59
2021/07/27 06:29:53;;;;;;;10.50;10.10;;;24.70;95.00;;;;;;3546947;40;20462;-59
2021/07/27 06:32:20;;;;;;;10.60;10.20;;;24.70;95.00;;;;;;3557476;40;20459;-57
2021/07/27 06:34:47;;;;;;;10.73;10.33;;;24.70;95.10;;;;;;3557632;40;20729;-58
2021/07/27 06:37:14;;;;;;;9.90;9.57;;;24.70;95.00;;;;;;3557273;40;20519;-58
2021/07/27 06:39:42;;;;;;;10.40;10.00;;;24.70;95.00;;;;;;3558210;40;20475;-59
2021/07/27 06:42:09;;;;;;;10.23;9.93;;;24.70;95.00;;;;;;3557623;40;20475;-58
2021/07/27 06:44:38;;;;;;;10.87;10.47;;;24.70;95.30;;;;;;3556589;40;20834;-58
2021/07/27 06:47:05;;;;;;;10.53;10.13;;;24.70;95.00;;;;;;3556860;40;21002;-60
2021/07/27 06:49:32;;;;;;;10.53;10.13;;;24.70;95.00;;;;;;3545966;40;20507;-59
2021/07/27 06:52:00;;;;;;;10.57;10.17;;;24.70;95.00;;;;;;3556366;40;20566;-58
2021/07/27 06:54:27;;;;;;;9.90;9.53;;;24.80;95.10;;;;;;3557894;40;20598;-59
2021/07/27 06:56:55;;;;;;;10.00;9.60;;;24.80;95.10;;;;;;3553980;40;20691;-59
2021/07/27 06:59:23;;;;;;;11.00;10.60;;;24.80;95.10;;;;;;3553104;40;20463;-58
2021/07/27 07:01:52;;;;;;;10.87;10.47;;;24.80;95.10;;;;;;3554580;40;20549;-57
2021/07/27 07:04:19;;;;;;;9.73;9.43;;;24.80;95.10;;;;;;3555333;40;20656;-57
2021/07/27 07:06:47;;;;;;;10.50;10.20;;;24.80;95.10;;;;;;3554945;40;20738;-59
2021/07/27 07:09:14;;;;;;;9.80;9.50;;;24.80;95.10;;;;;;3554320;40;20798;-60
2021/07/27 07:11:41;;;;;;;10.00;9.60;;;24.80;95.10;;;;;;3555912;40;20873;-60
2021/07/27 07:14:08;;;;;;;9.90;9.50;;;24.80;95.10;;;;;;3555708;40;20818;-59
2021/07/27 07:16:35;;;;;;;10.00;9.60;;;24.80;95.10;;;;;;3553528;40;21115;-59
2021/07/27 07:19:04;;;;;;;10.63;10.23;;;24.80;95.10;;;;;;3550544;40;20486;-58
2021/07/27 07:21:31;;;;;;;9.70;9.30;;;24.80;95.10;;;;;;3554207;40;20467;-59
2021/07/27 07:23:58;;;;;;;9.77;9.37;;;24.80;95.10;;;;;;3555089;40;20811;-59
2021/07/27 07:26:25;;;;;;;10.10;9.70;;;24.80;95.10;;;;;;3562614;40;20724;-59
2021/07/27 07:28:52;;;;;;;9.57;9.27;;;24.80;95.10;;;;;;3565992;40;20512;-59
2021/07/27 07:31:20;;;;;;;10.57;10.07;;;24.80;95.10;;;;;;3565375;40;20469;-59
2021/07/27 07:33:47;;;;;;;9.57;9.20;;;24.80;95.10;;;;;;3565946;40;20727;-58
2021/07/27 07:36:16;;;;;;;10.17;9.77;;;24.80;95.10;;;;;;3566114;40;20462;-59
2021/07/27 07:38:43;;;;;;;10.03;9.63;;;24.80;95.10;;;;;;3565733;40;20492;-59
2021/07/27 07:41:12;;;;;;;10.03;9.63;;;24.70;95.10;;;;;;3565011;40;20545;-59
2021/07/27 07:43:39;;;;;;;9.90;9.60;;;24.80;95.10;;;;;;3561263;40;20740;-60
2021/07/27 07:46:07;;;;;;;10.73;10.33;;;24.80;95.10;;;;;;3564211;40;20800;-58
2021/07/27 07:48:34;;;;;;;10.23;9.93;;;24.80;95.10;;;;;;3563069;40;20489;-57
2021/07/27 07:51:02;;;;;;;10.40;10.00;;;24.80;95.10;;;;;;3565044;40;20493;-59
2021/07/27 07:53:33;;;;;;;10.30;9.90;;;24.80;95.10;;;;;;3564839;40;20739;-59
2021/07/27 07:56:00;;;;;;;9.93;9.63;;;24.80;95.10;;;;;;3563598;40;20744;-56
2021/07/27 07:58:28;;;;;;;10.07;9.70;;;24.80;95.10;;;;;;3563895;40;21173;-59
2021/07/27 08:00:56;;;;;;;9.37;9.07;;;24.80;95.10;;;;;;3563573;40;20466;-59
2021/07/27 08:03:23;;;;;;;9.70;9.40;;;24.70;95.10;;;;;;3552917;40;20759;-57
2021/07/27 08:05:50;;;;;;;9.83;9.53;;;24.80;95.10;;;;;;3564134;40;20465;-60
2021/07/27 08:08:19;;;;;;;10.00;9.70;;;24.80;95.10;;;;;;3565668;40;20474;-60
2021/07/27 08:10:48;;;;;;;10.27;9.87;;;24.80;95.10;;;;;;3564019;40;20473;-57
2021/07/27 08:13:15;;;;;;;10.67;10.27;;;24.80;95.10;;;;;;3564276;40;20878;-57
2021/07/27 08:15:44;;;;;;;11.07;10.67;;;24.80;95.10;;;;;;3555000;40;20490;-58
2021/07/27 08:18:12;;;;;;;11.17;10.77;;;24.80;95.10;;;;;;3566490;40;20721;-59
2021/07/27 08:20:39;;;;;;;10.37;9.97;;;24.80;95.10;;;;;;3565487;40;20507;-59
2021/07/27 08:23:06;;;;;;;10.70;10.30;;;24.80;95.10;;;;;;3566412;40;20450;-60
2021/07/27 08:25:33;;;;;;;11.23;10.83;;;24.80;95.10;;;;;;3567534;40;20788;-60
2021/07/27 08:28:01;;;;;;;10.40;10.00;;;24.80;95.10;;;;;;3568059;40;20595;-60
2021/07/27 08:30:29;;;;;;;11.10;10.70;;;24.80;95.10;;;;;;3565492;40;20742;-60
2021/07/27 08:32:56;;;;;;;11.17;10.67;;;24.80;95.10;;;;;;3563490;40;20672;-60
2021/07/27 08:35:24;;;;;;;10.47;10.10;;;24.80;95.20;;;;;;3564990;40;20769;-58
2021/07/27 08:37:53;;;;;;;10.37;9.97;;;24.80;95.10;;;;;;3554702;40;20485;-58
2021/07/27 08:40:22;;;;;;;10.67;10.27;;;24.80;95.20;;;;;;3564057;40;20472;-59
2021/07/27 08:42:50;;;;;;;10.20;9.90;;;24.80;95.10;;;;;;3566085;40;20485;-57
2021/07/27 08:45:19;;;;;;;10.10;9.70;;;24.80;95.20;;;;;;3562125;40;21008;-59
2021/07/27 08:47:48;;;;;;;10.70;10.30;;;24.80;95.50;;;;;;3564955;40;20496;-59
2021/07/27 08:50:17;;;;;;;10.87;10.47;;;24.80;95.10;;;;;;3563610;40;20680;-59
2021/07/27 08:52:44;;;;;;;10.17;9.87;;;24.80;95.20;;;;;;3565399;40;20466;-59
2021/07/27 08:55:12;;;;;;;9.93;9.53;;;24.80;95.20;;;;;;3563435;40;20729;-59
2021/07/27 08:57:47;;;;;;;10.50;10.10;;;24.80;95.20;;;;;;3550460;40;20462;-60
2021/07/27 09:00:15;;;;;;;11.40;11.00;;;24.80;95.20;;;;;;3562099;40;20710;-59
2021/07/27 09:02:43;;;;;;;11.07;10.67;;;24.80;95.20;;;;;;3561620;40;20847;-60
2021/07/27 09:05:12;;;;;;;11.73;11.33;;;24.80;95.20;;;;;;3560030;40;20465;-59
2021/07/27 09:07:39;;;;;;;11.10;10.70;;;24.80;95.20;;;;;;3562609;40;20482;-59
2021/07/27 09:10:15;;;;;;;11.67;11.27;;;24.80;95.20;;;;;;3559780;40;21090;-58
2021/07/27 09:12:56;;;;;;;11.00;10.60;;;24.80;95.20;;;;;;3563870;40;21052;-59
2021/07/27 09:15:25;;;;;;;11.33;10.93;;;24.80;95.20;;;;;;3561276;40;20579;-59
2021/07/27 09:17:55;;;;;;;11.90;11.50;;;24.80;95.20;;;;;;3561090;40;20458;-59
2021/07/27 09:20:33;;;;;;;11.10;10.70;;;24.70;95.20;;;;;;3561959;40;20505;-60
2021/07/27 09:23:01;;;;;;;12.63;12.13;;;24.70;95.20;;;;;;3563253;40;20478;-58
2021/07/27 09:25:29;;;;;;;12.17;11.77;;;24.70;95.20;;;;;;3564004;40;21101;-58
2021/07/27 09:28:06;;;;;;;12.07;11.57;;;24.70;95.20;;;;;;3563908;40;20545;-60
2021/07/27 09:30:35;;;;;;;11.63;11.23;;;24.70;95.10;;;;;;3560600;40;20515;-58
2021/07/27 09:33:04;;;;;;;11.40;11.00;;;24.70;95.20;;;;;;3559488;40;20711;-58
2021/07/27 09:35:32;;;;;;;11.10;10.70;;;24.70;95.20;;;;;;3559689;40;20730;-59
2021/07/27 09:38:07;;;;;;;11.23;10.83;;;24.70;95.20;;;;;;3562981;40;21155;-59
2021/07/27 09:40:35;;;;;;;10.37;9.97;;;24.70;95.20;;;;;;3553891;40;20477;-58
2021/07/27 09:43:02;;;;;;;10.10;9.80;;;24.70;95.20;;;;;;3557917;40;21146;-59
2021/07/27 09:45:30;;;;;;;10.77;10.37;;;24.80;95.20;;;;;;3564571;40;20884;-58
2021/07/27 09:47:57;;;;;;;11.00;10.60;;;24.80;95.20;;;;;;3565676;40;20615;-58
2021/07/27 09:50:26;;;;;;;10.37;9.97;;;24.70;95.10;;;;;;3557837;40;20461;-59
2021/07/27 09:52:54;;;;;;;11.00;10.60;;;24.70;95.20;;;;;;3557322;40;20455;-60
2021/07/27 09:55:23;;;;;;;11.10;10.70;;;24.70;95.20;;;;;;3557738;40;20490;-60
2021/07/27 09:57:52;;;;;;;10.93;10.53;;;24.80;95.20;;;;;;3555707;40;20883;-60
2021/07/27 10:00:19;;;;;;;11.07;10.67;;;24.70;95.20;;;;;;3562427;40;20519;-60
2021/07/27 10:02:49;;;;;;;10.57;10.17;;;24.80;95.20;;;;;;3566512;40;20455;-59
2021/07/27 10:05:23;;;;;;;12.10;11.70;;;24.80;95.20;;;;;;3569327;40;20462;-59
2021/07/27 10:07:56;;;;;;;11.17;10.77;;;24.80;95.20;;;;;;3566198;40;20493;-59
2021/07/27 10:10:43;;;;;;;10.90;10.60;;;24.80;95.20;;;;;;3564872;40;20465;-60
2021/07/27 10:13:12;;;;;;;11.33;10.93;;;24.80;95.20;;;;;;3569342;40;20463;-60
2021/07/27 10:15:41;;;;;;;10.10;9.80;;;24.80;95.20;;;;;;3570092;40;20859;-60
2021/07/27 10:18:08;;;;;;;10.70;10.30;;;24.70;95.10;;;;;;3568502;40;20471;-59
2021/07/27 10:20:36;;;;;;;9.90;9.60;;;24.80;95.20;;;;;;3566691;40;20910;-59
2021/07/27 10:23:18;;;;;;;10.50;10.10;;;24.80;95.20;;;;;;3562494;40;20498;-57
2021/07/27 10:25:57;;;;;;;11.00;10.60;;;24.80;95.20;;;;;;3572548;40;20508;-59
2021/07/27 10:28:25;;;;;;;10.23;9.87;;;24.80;95.20;;;;;;3570280;40;20524;-58
2021/07/27 10:31:03;;;;;;;10.37;9.97;;;24.80;95.20;;;;;;3556762;40;20571;-58
2021/07/27 10:33:31;;;;;;;10.00;9.70;;;24.70;95.20;;;;;;3558507;40;20454;-60
2021/07/27 10:35:58;;;;;;;10.73;10.33;;;24.80;95.20;;;;;;3566515;40;20547;-59
2021/07/27 10:38:41;;;;;;;10.50;10.10;;;24.70;95.20;;;;;;3559265;40;20477;-59
2021/07/27 10:41:19;;;;;;;10.03;9.73;;;24.80;95.20;;;;;;3578385;40;20456;-59
2021/07/27 10:43:46;;;;;;;10.40;10.00;;;24.80;95.20;;;;;;3578702;40;20456;-60
2021/07/27 10:46:14;;;;;;;9.67;9.37;;;24.80;95.20;;;;;;3576154;40;20449;-58
2021/07/27 10:48:42;;;;;;;10.07;9.77;;;24.70;95.20;;;;;;3575876;40;21137;-60
2021/07/27 10:51:10;;;;;;;10.13;9.83;;;24.80;95.20;;;;;;3572663;40;20508;-62
2021/07/27 10:53:41;;;;;;;10.20;9.80;;;24.80;95.20;;;;;;3584134;40;20457;-62
2021/07/27 10:56:09;;;;;;;11.10;10.70;;;24.80;95.20;;;;;;3576437;40;20479;-62
2021/07/27 10:58:37;;;;;;;10.90;10.50;;;24.70;95.20;;;;;;3566255;40;20505;-62
2021/07/27 11:01:11;;;;;;;10.40;10.10;;;24.70;95.20;;;;;;3584053;40;20477;-62
2021/07/27 11:03:40;;;;;;;10.50;10.10;;;24.80;95.20;;;;;;3587396;40;20901;-62
2021/07/27 11:06:08;;;;;;;9.93;9.53;;;24.70;95.20;;;;;;3584793;40;20862;-61
2021/07/27 11:08:36;;;;;;;9.97;9.67;;;24.70;95.20;;;;;;3566610;40;20680;-62
2021/07/27 11:11:09;;;;;;;9.83;9.53;;;24.70;95.20;;;;;;3581446;40;20462;-62
2021/07/27 11:13:37;;;;;;;10.20;9.80;;;24.70;95.20;;;;;;3576013;40;20457;-62
2021/07/27 11:16:05;;;;;;;9.70;9.40;;;24.80;95.20;;;;;;3576269;40;20946;-61
2021/07/27 11:18:32;;;;;;;10.63;10.13;;;24.80;95.20;;;;;;3565340;40;20471;-62
2021/07/27 11:21:01;;;;;;;10.30;9.90;;;24.80;95.30;;;;;;3575788;40;20446;-62
2021/07/27 11:23:34;;;;;;;10.23;9.90;;;24.80;95.20;;;;;;3576522;40;20474;-62
2021/07/27 11:26:01;;;;;;;10.40;10.00;;;24.80;95.20;;;;;;3569386;40;20656;-62
2021/07/27 11:28:37;;;;;;;10.00;9.60;;;24.80;95.20;;;;;;3564800;40;20475;-62
2021/07/27 11:31:16;;;;;;;10.20;9.80;;;24.80;95.20;;;;;;3565380;40;20791;-62
2021/07/27 11:33:48;;;;;;;9.60;9.30;;;24.80;95.50;;;;;;3566073;40;20470;-61
2021/07/27 11:36:21;;;;;;;9.80;9.50;;;24.80;95.20;;;;;;3566177;40;20457;-62
2021/07/27 11:38:49;;;;;;;9.83;9.53;;;24.80;95.30;;;;;;3558429;40;21100;-62
2021/07/27 11:41:19;;;;;;;9.03;8.73;;;24.80;95.20;;;;;;3574798;40;20560;-62
2021/07/27 11:43:50;;;;;;;8.90;8.60;;;24.80;95.20;;;;;;3576737;40;20493;-61
2021/07/27 11:46:19;;;;;;;9.43;9.13;;;24.80;95.20;;;;;;3565474;40;20479;-61
2021/07/27 11:48:53;;;;;;;9.53;9.23;;;24.80;95.30;;;;;;3576803;40;20491;-62
2021/07/27 11:51:29;;;;;;;10.60;10.20;;;24.80;95.30;;;;;;3577438;40;21125;-61
2021/07/27 11:53:57;;;;;;;10.50;10.10;;;24.80;95.30;;;;;;3568042;40;20525;-62
2021/07/27 11:56:24;;;;;;;10.20;9.90;;;24.70;95.20;;;;;;3564913;40;20810;-62
2021/07/27 11:59:02;;;;;;;10.30;9.90;;;24.80;95.20;;;;;;3564649;40;20753;-61
2021/07/27 12:01:37;;;;;;;10.27;9.90;;;24.80;95.20;;;;;;3562976;40;20977;-62
2021/07/27 12:04:04;;;;;;;9.73;9.43;;;24.80;95.20;;;;;;3561679;40;20733;-62
2021/07/27 12:06:31;;;;;;;10.30;9.90;;;24.80;95.30;;;;;;3563294;40;20489;-62
2021/07/27 12:09:01;;;;;;;10.43;10.03;;;24.70;95.20;;;;;;3553221;40;21242;-62
2021/07/27 12:11:28;;;;;;;9.80;9.50;;;24.80;95.30;;;;;;3552176;40;20816;-62
2021/07/27 12:13:55;;;;;;;10.17;9.77;;;24.80;95.30;;;;;;3562055;40;20462;-62
2021/07/27 12:16:24;;;;;;;10.80;10.40;;;24.80;95.30;;;;;;3560847;40;20822;-62
2021/07/27 12:18:51;;;;;;;10.87;10.47;;;24.80;95.30;;;;;;3560136;40;20454;-61
2021/07/27 12:21:18;;;;;;;10.60;10.30;;;24.80;95.30;;;;;;3561269;40;21182;-62
2021/07/27 12:23:45;;;;;;;11.07;10.67;;;24.80;95.30;;;;;;3560841;40;20554;-62
2021/07/27 12:26:13;;;;;;;10.53;10.13;;;24.80;95.30;;;;;;3560764;40;20567;-61
2021/07/27 12:28:40;;;;;;;10.10;9.80;;;24.70;95.20;;;;;;3561584;40;20787;-62
2021/07/27 12:31:07;;;;;;;10.80;10.40;;;24.70;95.20;;;;;;3561955;40;20734;-61
2021/07/27 12:33:36;;;;;;;11.13;10.73;;;24.70;95.20;;;;;;3562474;40;20679;-62
2021/07/27 12:36:04;;;;;;;11.27;10.87;;;24.70;95.20;;;;;;3564239;40;21029;-62
2021/07/27 12:38:33;;;;;;;10.53;10.13;;;24.80;95.30;;;;;;3563420;40;20458;-62
2021/07/27 12:41:00;;;;;;;10.30;10.00;;;24.70;95.20;;;;;;3563065;40;20741;-62
2021/07/27 12:43:27;;;;;;;10.00;9.60;;;24.70;95.20;;;;;;3562447;40;20709;-61
2021/07/27 12:45:56;;;;;;;9.90;9.60;;;24.80;95.30;;;;;;3565997;40;20482;-62
2021/07/27 12:48:23;;;;;;;10.13;9.73;;;24.70;95.20;;;;;;3565478;40;20817;-62
2021/07/27 12:50:52;;;;;;;10.57;10.17;;;24.70;95.20;;;;;;3554808;40;20494;-61
2021/07/27 12:53:22;;;;;;;10.70;10.30;;;24.70;95.20;;;;;;3563192;40;20807;-62
2021/07/27 12:55:49;;;;;;;10.20;9.90;;;24.70;95.20;;;;;;3564920;40;20805;-61
2021/07/27 12:58:17;;;;;;;10.23;9.87;;;24.70;95.20;;;;;;3565223;40;20457;-62
2021/07/27 13:00:44;;;;;;;10.03;9.73;;;24.70;95.20;;;;;;3562089;40;20489;-62